sensor_id;sensor_type;location;lat;lon;timestamp;P1;durP1;ratioP1;P2;durP2;ratioP2
45254;SDS011;30989;52.078;21.014;2023-07-08T00:00:22;6.78;;;2.70;;
45254;SDS011;30989;52.078;21.014;2023-07-08T00:02:50;5.38;;;2.50;;
45254;SDS011;30989;52.078;21.014;2023-07-08T00:05:19;6.78;;;2.88;;
45254;SDS011;30989;52.078;21.014;2023-07-08T00:07:46;7.05;;;2.88;;
45254;SDS011;30989;52.078;21.014;2023-07-08T00:12:41;7.65;;;3.38;;
45254;SDS011;30989;52.078;21.014;2023-07-08T00:15:08;7.90;;;3.60;;
45254;SDS011;30989;52.078;21.014;2023-07-08T00:17:35;9.45;;;3.35;;
45254;SDS011;30989;52.078;21.014;2023-07-08T00:20:00;11.55;;;3.90;;
45254;SDS011;30989;52.078;21.014;2023-07-08T00:22:26;7.45;;;3.15;;
45254;SDS011;30989;52.078;21.014;2023-07-08T00:24:51;5.93;;;3.15;;
45254;SDS011;30989;52.078;21.014;2023-07-08T00:27:17;9.50;;;4.10;;
45254;SDS011;30989;52.078;21.014;2023-07-08T00:29:43;12.75;;;4.32;;
45254;SDS011;30989;52.078;21.014;2023-07-08T00:32:09;11.88;;;5.05;;
45254;SDS011;30989;52.078;21.014;2023-07-08T00:34:39;8.38;;;4.25;;
45254;SDS011;30989;52.078;21.014;2023-07-08T00:37:05;8.70;;;4.28;;
45254;SDS011;30989;52.078;21.014;2023-07-08T00:39:33;11.05;;;4.72;;
45254;SDS011;30989;52.078;21.014;2023-07-08T00:42:02;9.07;;;4.55;;
45254;SDS011;30989;52.078;21.014;2023-07-08T00:44:37;10.60;;;4.25;;
45254;SDS011;30989;52.078;21.014;2023-07-08T00:47:07;10.05;;;3.95;;
45254;SDS011;30989;52.078;21.014;2023-07-08T00:52:31;7.28;;;3.95;;
45254;SDS011;30989;52.078;21.014;2023-07-08T00:54:58;9.23;;;4.18;;
45254;SDS011;30989;52.078;21.014;2023-07-08T00:57:28;9.95;;;4.20;;
45254;SDS011;30989;52.078;21.014;2023-07-08T01:00:01;14.43;;;4.63;;
45254;SDS011;30989;52.078;21.014;2023-07-08T01:02:31;8.20;;;4.00;;
45254;SDS011;30989;52.078;21.014;2023-07-08T01:05:02;7.88;;;3.92;;
45254;SDS011;30989;52.078;21.014;2023-07-08T01:07:32;10.20;;;4.05;;
45254;SDS011;30989;52.078;21.014;2023-07-08T01:10:02;12.40;;;4.55;;
45254;SDS011;30989;52.078;21.014;2023-07-08T01:12:32;8.18;;;3.92;;
45254;SDS011;30989;52.078;21.014;2023-07-08T01:15:02;7.18;;;3.50;;
45254;SDS011;30989;52.078;21.014;2023-07-08T01:17:29;7.82;;;3.40;;
45254;SDS011;30989;52.078;21.014;2023-07-08T01:20:00;10.93;;;3.95;;
45254;SDS011;30989;52.078;21.014;2023-07-08T01:22:31;9.73;;;4.25;;
45254;SDS011;30989;52.078;21.014;2023-07-08T01:25:01;6.20;;;3.42;;
45254;SDS011;30989;52.078;21.014;2023-07-08T01:27:31;6.45;;;3.10;;
45254;SDS011;30989;52.078;21.014;2023-07-08T01:30:00;7.10;;;3.65;;
45254;SDS011;30989;52.078;21.014;2023-07-08T01:32:27;12.98;;;3.20;;
45254;SDS011;30989;52.078;21.014;2023-07-08T01:34:55;8.98;;;3.47;;
45254;SDS011;30989;52.078;21.014;2023-07-08T01:40:26;7.28;;;3.50;;
45254;SDS011;30989;52.078;21.014;2023-07-08T01:42:59;13.90;;;5.80;;
45254;SDS011;30989;52.078;21.014;2023-07-08T01:45:27;13.15;;;6.80;;
45254;SDS011;30989;52.078;21.014;2023-07-08T01:47:57;12.50;;;5.72;;
45254;SDS011;30989;52.078;21.014;2023-07-08T01:50:28;8.90;;;3.80;;
45254;SDS011;30989;52.078;21.014;2023-07-08T01:52:58;8.07;;;3.63;;
45254;SDS011;30989;52.078;21.014;2023-07-08T01:55:26;7.03;;;3.08;;
45254;SDS011;30989;52.078;21.014;2023-07-08T01:57:55;7.10;;;2.97;;
45254;SDS011;30989;52.078;21.014;2023-07-08T02:00:21;6.82;;;3.17;;
45254;SDS011;30989;52.078;21.014;2023-07-08T02:02:47;6.80;;;3.67;;
45254;SDS011;30989;52.078;21.014;2023-07-08T02:05:13;7.65;;;3.40;;
45254;SDS011;30989;52.078;21.014;2023-07-08T02:07:40;11.45;;;4.55;;
45254;SDS011;30989;52.078;21.014;2023-07-08T02:10:05;12.00;;;4.90;;
45254;SDS011;30989;52.078;21.014;2023-07-08T02:12:32;15.05;;;5.40;;
45254;SDS011;30989;52.078;21.014;2023-07-08T02:15:01;11.30;;;4.72;;
45254;SDS011;30989;52.078;21.014;2023-07-08T02:17:27;8.68;;;3.97;;
45254;SDS011;30989;52.078;21.014;2023-07-08T02:19:55;9.20;;;3.35;;
45254;SDS011;30989;52.078;21.014;2023-07-08T02:22:21;8.35;;;3.25;;
45254;SDS011;30989;52.078;21.014;2023-07-08T02:24:47;10.38;;;3.70;;
45254;SDS011;30989;52.078;21.014;2023-07-08T02:27:13;8.55;;;3.85;;
45254;SDS011;30989;52.078;21.014;2023-07-08T02:29:38;8.43;;;3.00;;
45254;SDS011;30989;52.078;21.014;2023-07-08T02:32:04;18.13;;;7.88;;
45254;SDS011;30989;52.078;21.014;2023-07-08T02:34:30;11.15;;;4.00;;
45254;SDS011;30989;52.078;21.014;2023-07-08T02:36:56;10.60;;;3.85;;
45254;SDS011;30989;52.078;21.014;2023-07-08T02:39:21;20.63;;;8.07;;
45254;SDS011;30989;52.078;21.014;2023-07-08T02:41:47;12.85;;;5.60;;
45254;SDS011;30989;52.078;21.014;2023-07-08T02:44:14;15.38;;;5.57;;
45254;SDS011;30989;52.078;21.014;2023-07-08T02:46:39;14.00;;;4.75;;
45254;SDS011;30989;52.078;21.014;2023-07-08T02:49:05;10.07;;;4.10;;
45254;SDS011;30989;52.078;21.014;2023-07-08T02:51:31;6.85;;;4.18;;
45254;SDS011;30989;52.078;21.014;2023-07-08T02:53:56;11.40;;;4.90;;
45254;SDS011;30989;52.078;21.014;2023-07-08T02:56:22;18.25;;;7.55;;
45254;SDS011;30989;52.078;21.014;2023-07-08T02:58:48;11.70;;;4.80;;
45254;SDS011;30989;52.078;21.014;2023-07-08T03:01:14;9.93;;;4.50;;
45254;SDS011;30989;52.078;21.014;2023-07-08T03:03:46;12.32;;;3.55;;
45254;SDS011;30989;52.078;21.014;2023-07-08T03:06:13;8.00;;;3.50;;
45254;SDS011;30989;52.078;21.014;2023-07-08T03:08:39;7.57;;;3.53;;
45254;SDS011;30989;52.078;21.014;2023-07-08T03:11:06;6.78;;;3.80;;
45254;SDS011;30989;52.078;21.014;2023-07-08T03:13:33;6.13;;;3.30;;
45254;SDS011;30989;52.078;21.014;2023-07-08T03:16:00;8.32;;;3.97;;
45254;SDS011;30989;52.078;21.014;2023-07-08T03:18:28;10.55;;;4.28;;
45254;SDS011;30989;52.078;21.014;2023-07-08T03:20:55;6.78;;;3.53;;
45254;SDS011;30989;52.078;21.014;2023-07-08T03:23:22;9.93;;;4.40;;
45254;SDS011;30989;52.078;21.014;2023-07-08T03:25:50;8.45;;;4.18;;
45254;SDS011;30989;52.078;21.014;2023-07-08T03:28:18;7.38;;;4.18;;
45254;SDS011;30989;52.078;21.014;2023-07-08T03:30:44;10.30;;;4.28;;
45254;SDS011;30989;52.078;21.014;2023-07-08T03:33:11;9.85;;;4.88;;
45254;SDS011;30989;52.078;21.014;2023-07-08T03:35:39;17.13;;;8.38;;
45254;SDS011;30989;52.078;21.014;2023-07-08T03:38:05;14.23;;;4.85;;
45254;SDS011;30989;52.078;21.014;2023-07-08T03:40:31;8.50;;;4.55;;
45254;SDS011;30989;52.078;21.014;2023-07-08T03:42:56;7.25;;;4.45;;
45254;SDS011;30989;52.078;21.014;2023-07-08T03:45:23;10.05;;;4.47;;
45254;SDS011;30989;52.078;21.014;2023-07-08T03:47:48;9.85;;;4.50;;
45254;SDS011;30989;52.078;21.014;2023-07-08T03:50:18;7.68;;;3.80;;
45254;SDS011;30989;52.078;21.014;2023-07-08T03:52:46;10.70;;;4.03;;
45254;SDS011;30989;52.078;21.014;2023-07-08T03:55:13;11.90;;;4.43;;
45254;SDS011;30989;52.078;21.014;2023-07-08T03:57:39;8.43;;;4.32;;
45254;SDS011;30989;52.078;21.014;2023-07-08T04:00:05;22.98;;;9.95;;
45254;SDS011;30989;52.078;21.014;2023-07-08T04:02:42;11.85;;;5.05;;
45254;SDS011;30989;52.078;21.014;2023-07-08T04:05:13;10.45;;;4.10;;
45254;SDS011;30989;52.078;21.014;2023-07-08T04:07:44;9.50;;;5.57;;
45254;SDS011;30989;52.078;21.014;2023-07-08T04:10:10;12.82;;;7.30;;
45254;SDS011;30989;52.078;21.014;2023-07-08T04:12:37;9.75;;;4.50;;
45254;SDS011;30989;52.078;21.014;2023-07-08T04:15:03;16.70;;;6.53;;
45254;SDS011;30989;52.078;21.014;2023-07-08T04:17:29;10.32;;;4.85;;
45254;SDS011;30989;52.078;21.014;2023-07-08T04:19:55;12.60;;;4.85;;
45254;SDS011;30989;52.078;21.014;2023-07-08T04:22:22;17.20;;;8.90;;
45254;SDS011;30989;52.078;21.014;2023-07-08T04:24:48;15.02;;;6.22;;
45254;SDS011;30989;52.078;21.014;2023-07-08T04:27:15;11.82;;;4.43;;
45254;SDS011;30989;52.078;21.014;2023-07-08T04:29:42;11.27;;;3.72;;
45254;SDS011;30989;52.078;21.014;2023-07-08T04:32:08;17.55;;;8.50;;
45254;SDS011;30989;52.078;21.014;2023-07-08T04:34:34;11.10;;;5.50;;
45254;SDS011;30989;52.078;21.014;2023-07-08T04:37:00;9.35;;;4.78;;
45254;SDS011;30989;52.078;21.014;2023-07-08T04:39:26;9.02;;;4.50;;
45254;SDS011;30989;52.078;21.014;2023-07-08T04:41:52;8.27;;;3.95;;
45254;SDS011;30989;52.078;21.014;2023-07-08T04:44:17;10.43;;;4.72;;
45254;SDS011;30989;52.078;21.014;2023-07-08T04:49:19;14.90;;;6.88;;
45254;SDS011;30989;52.078;21.014;2023-07-08T04:51:45;25.35;;;10.45;;
45254;SDS011;30989;52.078;21.014;2023-07-08T04:54:11;18.38;;;9.60;;
45254;SDS011;30989;52.078;21.014;2023-07-08T04:56:43;13.27;;;6.80;;
45254;SDS011;30989;52.078;21.014;2023-07-08T04:59:13;13.55;;;6.05;;
45254;SDS011;30989;52.078;21.014;2023-07-08T05:01:40;9.00;;;3.80;;
45254;SDS011;30989;52.078;21.014;2023-07-08T05:04:06;10.38;;;4.13;;
45254;SDS011;30989;52.078;21.014;2023-07-08T05:06:34;24.92;;;11.35;;
45254;SDS011;30989;52.078;21.014;2023-07-08T05:09:00;18.45;;;9.93;;
45254;SDS011;30989;52.078;21.014;2023-07-08T05:11:27;9.90;;;5.28;;
45254;SDS011;30989;52.078;21.014;2023-07-08T05:13:53;9.57;;;4.57;;
45254;SDS011;30989;52.078;21.014;2023-07-08T05:16:19;5.93;;;2.92;;
45254;SDS011;30989;52.078;21.014;2023-07-08T05:18:45;5.85;;;3.33;;
45254;SDS011;30989;52.078;21.014;2023-07-08T05:21:11;4.80;;;2.70;;
45254;SDS011;30989;52.078;21.014;2023-07-08T05:23:37;5.65;;;3.20;;
45254;SDS011;30989;52.078;21.014;2023-07-08T05:26:02;7.53;;;2.95;;
45254;SDS011;30989;52.078;21.014;2023-07-08T05:28:29;6.60;;;3.03;;
45254;SDS011;30989;52.078;21.014;2023-07-08T05:30:55;5.30;;;2.55;;
45254;SDS011;30989;52.078;21.014;2023-07-08T05:33:25;5.18;;;2.70;;
45254;SDS011;30989;52.078;21.014;2023-07-08T05:35:52;9.45;;;3.47;;
45254;SDS011;30989;52.078;21.014;2023-07-08T05:38:18;15.38;;;6.85;;
45254;SDS011;30989;52.078;21.014;2023-07-08T05:40:47;8.60;;;3.22;;
45254;SDS011;30989;52.078;21.014;2023-07-08T05:43:16;9.30;;;3.17;;
45254;SDS011;30989;52.078;21.014;2023-07-08T05:45:43;6.28;;;2.72;;
45254;SDS011;30989;52.078;21.014;2023-07-08T05:48:09;4.50;;;1.98;;
45254;SDS011;30989;52.078;21.014;2023-07-08T05:50:35;8.43;;;3.35;;
45254;SDS011;30989;52.078;21.014;2023-07-08T05:53:00;8.77;;;3.38;;
45254;SDS011;30989;52.078;21.014;2023-07-08T05:55:26;8.00;;;3.83;;
45254;SDS011;30989;52.078;21.014;2023-07-08T05:57:51;7.43;;;2.80;;
45254;SDS011;30989;52.078;21.014;2023-07-08T06:00:16;5.40;;;2.67;;
45254;SDS011;30989;52.078;21.014;2023-07-08T06:02:42;4.72;;;2.45;;
45254;SDS011;30989;52.078;21.014;2023-07-08T06:05:08;4.82;;;2.78;;
45254;SDS011;30989;52.078;21.014;2023-07-08T06:07:33;7.13;;;2.58;;
45254;SDS011;30989;52.078;21.014;2023-07-08T06:09:59;4.65;;;2.30;;
45254;SDS011;30989;52.078;21.014;2023-07-08T06:12:24;31.25;;;17.13;;
45254;SDS011;30989;52.078;21.014;2023-07-08T06:14:50;11.15;;;3.28;;
45254;SDS011;30989;52.078;21.014;2023-07-08T06:17:16;5.82;;;2.72;;
45254;SDS011;30989;52.078;21.014;2023-07-08T06:19:42;5.80;;;3.28;;
45254;SDS011;30989;52.078;21.014;2023-07-08T06:22:08;5.32;;;2.35;;
45254;SDS011;30989;52.078;21.014;2023-07-08T06:24:33;4.97;;;2.28;;
45254;SDS011;30989;52.078;21.014;2023-07-08T06:26:59;3.00;;;1.60;;
45254;SDS011;30989;52.078;21.014;2023-07-08T06:29:24;2.95;;;1.73;;
45254;SDS011;30989;52.078;21.014;2023-07-08T06:31:50;4.30;;;1.67;;
45254;SDS011;30989;52.078;21.014;2023-07-08T06:34:15;3.83;;;1.98;;
45254;SDS011;30989;52.078;21.014;2023-07-08T06:36:41;5.32;;;1.52;;
45254;SDS011;30989;52.078;21.014;2023-07-08T06:39:06;3.30;;;1.60;;
45254;SDS011;30989;52.078;21.014;2023-07-08T06:41:33;3.63;;;1.85;;
45254;SDS011;30989;52.078;21.014;2023-07-08T06:43:59;3.67;;;1.88;;
45254;SDS011;30989;52.078;21.014;2023-07-08T06:46:27;2.50;;;1.50;;
45254;SDS011;30989;52.078;21.014;2023-07-08T06:48:52;4.80;;;1.80;;
45254;SDS011;30989;52.078;21.014;2023-07-08T06:51:18;2.88;;;1.48;;
45254;SDS011;30989;52.078;21.014;2023-07-08T06:53:44;4.22;;;2.58;;
45254;SDS011;30989;52.078;21.014;2023-07-08T06:56:09;6.38;;;2.15;;
45254;SDS011;30989;52.078;21.014;2023-07-08T06:58:35;3.53;;;1.50;;
45254;SDS011;30989;52.078;21.014;2023-07-08T07:01:00;3.38;;;1.65;;
45254;SDS011;30989;52.078;21.014;2023-07-08T07:03:26;3.13;;;1.70;;
45254;SDS011;30989;52.078;21.014;2023-07-08T07:05:51;9.13;;;2.00;;
45254;SDS011;30989;52.078;21.014;2023-07-08T07:08:17;7.15;;;2.00;;
45254;SDS011;30989;52.078;21.014;2023-07-08T07:10:42;12.73;;;5.18;;
45254;SDS011;30989;52.078;21.014;2023-07-08T07:13:08;4.97;;;2.10;;
45254;SDS011;30989;52.078;21.014;2023-07-08T07:15:34;5.45;;;1.60;;
45254;SDS011;30989;52.078;21.014;2023-07-08T07:17:59;3.38;;;1.45;;
45254;SDS011;30989;52.078;21.014;2023-07-08T07:20:25;6.20;;;2.63;;
45254;SDS011;30989;52.078;21.014;2023-07-08T07:22:51;3.85;;;1.75;;
45254;SDS011;30989;52.078;21.014;2023-07-08T07:25:16;13.55;;;3.55;;
45254;SDS011;30989;52.078;21.014;2023-07-08T07:27:42;6.50;;;1.77;;
45254;SDS011;30989;52.078;21.014;2023-07-08T07:30:08;3.58;;;1.98;;
45254;SDS011;30989;52.078;21.014;2023-07-08T07:32:38;4.65;;;1.63;;
45254;SDS011;30989;52.078;21.014;2023-07-08T07:35:03;3.17;;;1.58;;
45254;SDS011;30989;52.078;21.014;2023-07-08T07:37:30;3.70;;;1.38;;
45254;SDS011;30989;52.078;21.014;2023-07-08T07:39:55;3.97;;;1.60;;
45254;SDS011;30989;52.078;21.014;2023-07-08T07:42:21;3.72;;;1.77;;
45254;SDS011;30989;52.078;21.014;2023-07-08T07:44:46;5.72;;;1.73;;
45254;SDS011;30989;52.078;21.014;2023-07-08T07:47:12;2.78;;;1.83;;
45254;SDS011;30989;52.078;21.014;2023-07-08T07:49:38;4.22;;;1.83;;
45254;SDS011;30989;52.078;21.014;2023-07-08T07:52:04;3.25;;;1.63;;
45254;SDS011;30989;52.078;21.014;2023-07-08T07:54:30;3.75;;;1.33;;
45254;SDS011;30989;52.078;21.014;2023-07-08T07:56:55;3.88;;;1.35;;
45254;SDS011;30989;52.078;21.014;2023-07-08T07:59:21;3.25;;;1.40;;
45254;SDS011;30989;52.078;21.014;2023-07-08T08:01:47;4.13;;;1.35;;
45254;SDS011;30989;52.078;21.014;2023-07-08T08:04:12;2.58;;;1.55;;
45254;SDS011;30989;52.078;21.014;2023-07-08T08:06:37;3.42;;;1.45;;
45254;SDS011;30989;52.078;21.014;2023-07-08T08:09:03;4.78;;;1.40;;
45254;SDS011;30989;52.078;21.014;2023-07-08T08:11:30;3.75;;;1.40;;
45254;SDS011;30989;52.078;21.014;2023-07-08T08:13:56;4.18;;;1.60;;
45254;SDS011;30989;52.078;21.014;2023-07-08T08:16:21;3.28;;;1.20;;
45254;SDS011;30989;52.078;21.014;2023-07-08T08:18:47;5.45;;;1.30;;
45254;SDS011;30989;52.078;21.014;2023-07-08T08:21:13;3.55;;;1.30;;
45254;SDS011;30989;52.078;21.014;2023-07-08T08:23:38;2.42;;;1.10;;
45254;SDS011;30989;52.078;21.014;2023-07-08T08:26:04;3.97;;;1.33;;
45254;SDS011;30989;52.078;21.014;2023-07-08T08:28:29;2.88;;;1.67;;
45254;SDS011;30989;52.078;21.014;2023-07-08T08:30:55;3.17;;;1.30;;
45254;SDS011;30989;52.078;21.014;2023-07-08T08:33:21;3.72;;;1.48;;
45254;SDS011;30989;52.078;21.014;2023-07-08T08:35:46;7.38;;;1.80;;
45254;SDS011;30989;52.078;21.014;2023-07-08T08:38:12;3.58;;;1.58;;
45254;SDS011;30989;52.078;21.014;2023-07-08T08:40:39;3.42;;;1.13;;
45254;SDS011;30989;52.078;21.014;2023-07-08T08:43:13;4.90;;;1.30;;
45254;SDS011;30989;52.078;21.014;2023-07-08T08:45:52;12.57;;;1.55;;
45254;SDS011;30989;52.078;21.014;2023-07-08T08:48:22;11.35;;;1.90;;
45254;SDS011;30989;52.078;21.014;2023-07-08T08:50:55;3.60;;;1.70;;
45254;SDS011;30989;52.078;21.014;2023-07-08T08:53:25;3.33;;;1.35;;
45254;SDS011;30989;52.078;21.014;2023-07-08T08:55:56;5.78;;;1.30;;
45254;SDS011;30989;52.078;21.014;2023-07-08T08:58:44;4.45;;;1.80;;
45254;SDS011;30989;52.078;21.014;2023-07-08T09:01:32;10.38;;;1.70;;
45254;SDS011;30989;52.078;21.014;2023-07-08T09:03:59;4.45;;;1.63;;
45254;SDS011;30989;52.078;21.014;2023-07-08T09:06:29;5.97;;;2.03;;
45254;SDS011;30989;52.078;21.014;2023-07-08T09:08:57;4.00;;;1.52;;
45254;SDS011;30989;52.078;21.014;2023-07-08T09:11:41;3.28;;;1.40;;
45254;SDS011;30989;52.078;21.014;2023-07-08T09:14:19;7.80;;;1.30;;
45254;SDS011;30989;52.078;21.014;2023-07-08T09:22:05;5.45;;;1.50;;
45254;SDS011;30989;52.078;21.014;2023-07-08T09:27:38;3.13;;;1.38;;
45254;SDS011;30989;52.078;21.014;2023-07-08T09:30:03;3.13;;;1.33;;
45254;SDS011;30989;52.078;21.014;2023-07-08T09:32:29;2.85;;;1.35;;
45254;SDS011;30989;52.078;21.014;2023-07-08T09:35:05;2.70;;;1.10;;
45254;SDS011;30989;52.078;21.014;2023-07-08T09:37:33;2.80;;;1.45;;
45254;SDS011;30989;52.078;21.014;2023-07-08T09:40:03;4.38;;;1.63;;
45254;SDS011;30989;52.078;21.014;2023-07-08T09:42:52;3.08;;;1.55;;
45254;SDS011;30989;52.078;21.014;2023-07-08T09:45:21;5.45;;;1.42;;
45254;SDS011;30989;52.078;21.014;2023-07-08T09:47:51;6.18;;;2.22;;
45254;SDS011;30989;52.078;21.014;2023-07-08T09:50:20;2.40;;;1.42;;
45254;SDS011;30989;52.078;21.014;2023-07-08T09:52:46;4.35;;;1.27;;
45254;SDS011;30989;52.078;21.014;2023-07-08T09:55:13;2.60;;;1.48;;
45254;SDS011;30989;52.078;21.014;2023-07-08T09:57:39;3.38;;;1.30;;
45254;SDS011;30989;52.078;21.014;2023-07-08T10:00:15;3.05;;;1.20;;
45254;SDS011;30989;52.078;21.014;2023-07-08T10:02:46;6.90;;;1.60;;
45254;SDS011;30989;52.078;21.014;2023-07-08T10:07:56;4.57;;;2.08;;
45254;SDS011;30989;52.078;21.014;2023-07-08T10:10:28;3.72;;;1.77;;
45254;SDS011;30989;52.078;21.014;2023-07-08T10:12:57;3.42;;;1.30;;
45254;SDS011;30989;52.078;21.014;2023-07-08T10:15:36;2.28;;;1.23;;
45254;SDS011;30989;52.078;21.014;2023-07-08T10:18:08;2.63;;;1.33;;
45254;SDS011;30989;52.078;21.014;2023-07-08T10:20:45;3.65;;;1.40;;
45254;SDS011;30989;52.078;21.014;2023-07-08T10:23:29;2.97;;;1.48;;
45254;SDS011;30989;52.078;21.014;2023-07-08T10:26:11;3.25;;;1.58;;
45254;SDS011;30989;52.078;21.014;2023-07-08T10:28:45;2.25;;;1.30;;
45254;SDS011;30989;52.078;21.014;2023-07-08T10:31:35;5.05;;;2.03;;
45254;SDS011;30989;52.078;21.014;2023-07-08T10:34:14;4.05;;;1.85;;
45254;SDS011;30989;52.078;21.014;2023-07-08T10:36:51;3.53;;;1.60;;
45254;SDS011;30989;52.078;21.014;2023-07-08T10:42:03;4.93;;;1.48;;
45254;SDS011;30989;52.078;21.014;2023-07-08T10:44:56;3.28;;;1.67;;
45254;SDS011;30989;52.078;21.014;2023-07-08T10:50:58;6.47;;;1.45;;
45254;SDS011;30989;52.078;21.014;2023-07-08T11:04:40;4.07;;;1.45;;
45254;SDS011;30989;52.078;21.014;2023-07-08T11:08:12;1.83;;;1.00;;
45254;SDS011;30989;52.078;21.014;2023-07-08T11:10:32;5.30;;;1.50;;
45254;SDS011;30989;52.078;21.014;2023-07-08T11:13:11;6.80;;;1.40;;
45254;SDS011;30989;52.078;21.014;2023-07-08T11:24:28;2.17;;;1.13;;
45254;SDS011;30989;52.078;21.014;2023-07-08T11:27:15;5.35;;;1.45;;
45254;SDS011;30989;52.078;21.014;2023-07-08T11:29:55;3.95;;;1.50;;
45254;SDS011;30989;52.078;21.014;2023-07-08T11:32:28;6.73;;;1.30;;
45254;SDS011;30989;52.078;21.014;2023-07-08T11:34:57;5.10;;;1.73;;
45254;SDS011;30989;52.078;21.014;2023-07-08T11:37:26;3.67;;;1.77;;
45254;SDS011;30989;52.078;21.014;2023-07-08T11:40:37;5.10;;;1.48;;
45254;SDS011;30989;52.078;21.014;2023-07-08T11:42:49;2.67;;;1.42;;
45254;SDS011;30989;52.078;21.014;2023-07-08T11:47:46;3.17;;;1.77;;
45254;SDS011;30989;52.078;21.014;2023-07-08T11:50:36;3.95;;;1.40;;
45254;SDS011;30989;52.078;21.014;2023-07-08T11:53:09;2.97;;;1.40;;
45254;SDS011;30989;52.078;21.014;2023-07-08T11:58:05;2.45;;;1.35;;
45254;SDS011;30989;52.078;21.014;2023-07-08T12:00:36;3.13;;;1.60;;
45254;SDS011;30989;52.078;21.014;2023-07-08T12:03:19;3.95;;;1.77;;
45254;SDS011;30989;52.078;21.014;2023-07-08T12:05:46;2.72;;;1.38;;
45254;SDS011;30989;52.078;21.014;2023-07-08T12:08:13;2.95;;;1.40;;
45254;SDS011;30989;52.078;21.014;2023-07-08T12:10:41;3.45;;;1.70;;
45254;SDS011;30989;52.078;21.014;2023-07-08T12:13:16;3.58;;;1.58;;
45254;SDS011;30989;52.078;21.014;2023-07-08T12:15:43;4.30;;;1.70;;
45254;SDS011;30989;52.078;21.014;2023-07-08T12:20:38;5.53;;;1.70;;
45254;SDS011;30989;52.078;21.014;2023-07-08T12:23:12;3.13;;;1.77;;
45254;SDS011;30989;52.078;21.014;2023-07-08T12:25:45;2.63;;;1.50;;
45254;SDS011;30989;52.078;21.014;2023-07-08T12:28:13;3.88;;;1.70;;
45254;SDS011;30989;52.078;21.014;2023-07-08T12:30:41;2.45;;;1.10;;
45254;SDS011;30989;52.078;21.014;2023-07-08T12:33:09;5.85;;;1.60;;
45254;SDS011;30989;52.078;21.014;2023-07-08T12:35:38;2.40;;;1.40;;
45254;SDS011;30989;52.078;21.014;2023-07-08T12:38:16;6.35;;;1.80;;
45254;SDS011;30989;52.078;21.014;2023-07-08T12:40:43;3.33;;;1.50;;
45254;SDS011;30989;52.078;21.014;2023-07-08T12:43:11;2.67;;;1.20;;
45254;SDS011;30989;52.078;21.014;2023-07-08T12:45:37;5.25;;;1.60;;
45254;SDS011;30989;52.078;21.014;2023-07-08T12:48:03;7.60;;;1.83;;
45254;SDS011;30989;52.078;21.014;2023-07-08T12:50:29;2.75;;;1.60;;
45254;SDS011;30989;52.078;21.014;2023-07-08T12:52:54;6.00;;;1.50;;
45254;SDS011;30989;52.078;21.014;2023-07-08T12:55:21;3.28;;;1.35;;
45254;SDS011;30989;52.078;21.014;2023-07-08T12:57:48;2.50;;;1.48;;
45254;SDS011;30989;52.078;21.014;2023-07-08T13:03:03;3.13;;;1.33;;
45254;SDS011;30989;52.078;21.014;2023-07-08T13:05:32;4.30;;;1.77;;
45254;SDS011;30989;52.078;21.014;2023-07-08T13:07:58;3.25;;;1.70;;
45254;SDS011;30989;52.078;21.014;2023-07-08T13:10:25;3.22;;;1.30;;
45254;SDS011;30989;52.078;21.014;2023-07-08T13:12:56;5.13;;;1.88;;
45254;SDS011;30989;52.078;21.014;2023-07-08T13:15:26;3.20;;;1.20;;
45254;SDS011;30989;52.078;21.014;2023-07-08T13:20:22;2.17;;;1.20;;
45254;SDS011;30989;52.078;21.014;2023-07-08T13:22:59;2.63;;;1.30;;
45254;SDS011;30989;52.078;21.014;2023-07-08T13:25:27;3.03;;;1.45;;
45254;SDS011;30989;52.078;21.014;2023-07-08T13:28:01;3.13;;;1.77;;
45254;SDS011;30989;52.078;21.014;2023-07-08T13:30:39;3.13;;;1.40;;
45254;SDS011;30989;52.078;21.014;2023-07-08T13:33:04;2.40;;;1.48;;
45254;SDS011;30989;52.078;21.014;2023-07-08T13:35:38;4.47;;;1.40;;
45254;SDS011;30989;52.078;21.014;2023-07-08T13:38:05;2.28;;;1.27;;
45254;SDS011;30989;52.078;21.014;2023-07-08T13:40:37;2.33;;;1.20;;
45254;SDS011;30989;52.078;21.014;2023-07-08T13:43:09;5.00;;;1.50;;
45254;SDS011;30989;52.078;21.014;2023-07-08T13:45:34;3.40;;;1.40;;
45254;SDS011;30989;52.078;21.014;2023-07-08T13:48:03;2.20;;;1.20;;
45254;SDS011;30989;52.078;21.014;2023-07-08T13:50:46;3.83;;;1.30;;
45254;SDS011;30989;52.078;21.014;2023-07-08T13:53:23;2.33;;;1.50;;
45254;SDS011;30989;52.078;21.014;2023-07-08T13:55:58;3.70;;;1.42;;
45254;SDS011;30989;52.078;21.014;2023-07-08T13:58:28;2.40;;;1.30;;
45254;SDS011;30989;52.078;21.014;2023-07-08T14:00:55;3.17;;;1.40;;
45254;SDS011;30989;52.078;21.014;2023-07-08T14:03:22;4.13;;;1.55;;
45254;SDS011;30989;52.078;21.014;2023-07-08T14:05:48;3.30;;;1.58;;
45254;SDS011;30989;52.078;21.014;2023-07-08T14:08:15;3.00;;;1.40;;
45254;SDS011;30989;52.078;21.014;2023-07-08T14:10:43;2.65;;;1.67;;
45254;SDS011;30989;52.078;21.014;2023-07-08T14:13:09;3.10;;;1.58;;
45254;SDS011;30989;52.078;21.014;2023-07-08T14:15:36;2.85;;;1.60;;
45254;SDS011;30989;52.078;21.014;2023-07-08T14:18:05;4.72;;;1.70;;
45254;SDS011;30989;52.078;21.014;2023-07-08T14:20:31;3.40;;;1.67;;
45254;SDS011;30989;52.078;21.014;2023-07-08T14:22:57;3.08;;;1.60;;
45254;SDS011;30989;52.078;21.014;2023-07-08T14:25:23;4.65;;;1.60;;
45254;SDS011;30989;52.078;21.014;2023-07-08T14:27:52;4.40;;;1.30;;
45254;SDS011;30989;52.078;21.014;2023-07-08T14:30:17;3.88;;;1.75;;
45254;SDS011;30989;52.078;21.014;2023-07-08T14:32:46;3.38;;;1.58;;
45254;SDS011;30989;52.078;21.014;2023-07-08T14:35:24;3.30;;;1.35;;
45254;SDS011;30989;52.078;21.014;2023-07-08T14:37:52;3.25;;;1.40;;
45254;SDS011;30989;52.078;21.014;2023-07-08T14:40:23;6.07;;;1.48;;
45254;SDS011;30989;52.078;21.014;2023-07-08T14:42:59;4.13;;;1.70;;
45254;SDS011;30989;52.078;21.014;2023-07-08T14:45:28;2.78;;;1.30;;
45254;SDS011;30989;52.078;21.014;2023-07-08T14:47:55;3.53;;;1.55;;
45254;SDS011;30989;52.078;21.014;2023-07-08T14:50:21;2.80;;;1.40;;
45254;SDS011;30989;52.078;21.014;2023-07-08T14:52:47;4.40;;;1.23;;
45254;SDS011;30989;52.078;21.014;2023-07-08T14:55:12;2.63;;;1.25;;
45254;SDS011;30989;52.078;21.014;2023-07-08T14:57:42;2.35;;;1.15;;
45254;SDS011;30989;52.078;21.014;2023-07-08T15:00:14;4.30;;;1.40;;
45254;SDS011;30989;52.078;21.014;2023-07-08T15:02:42;4.00;;;1.38;;
45254;SDS011;30989;52.078;21.014;2023-07-08T15:05:19;2.83;;;1.38;;
45254;SDS011;30989;52.078;21.014;2023-07-08T15:10:19;4.00;;;1.92;;
45254;SDS011;30989;52.078;21.014;2023-07-08T15:12:49;4.25;;;1.10;;
45254;SDS011;30989;52.078;21.014;2023-07-08T15:15:15;4.25;;;1.23;;
45254;SDS011;30989;52.078;21.014;2023-07-08T15:17:43;4.75;;;1.77;;
45254;SDS011;30989;52.078;21.014;2023-07-08T15:20:12;5.00;;;1.60;;
45254;SDS011;30989;52.078;21.014;2023-07-08T15:22:40;3.33;;;1.35;;
45254;SDS011;30989;52.078;21.014;2023-07-08T15:25:10;3.88;;;1.50;;
45254;SDS011;30989;52.078;21.014;2023-07-08T15:27:36;5.18;;;1.80;;
45254;SDS011;30989;52.078;21.014;2023-07-08T15:30:02;4.30;;;1.35;;
45254;SDS011;30989;52.078;21.014;2023-07-08T15:32:28;2.25;;;1.30;;
45254;SDS011;30989;52.078;21.014;2023-07-08T15:34:54;2.85;;;1.45;;
45254;SDS011;30989;52.078;21.014;2023-07-08T15:37:20;3.50;;;1.70;;
45254;SDS011;30989;52.078;21.014;2023-07-08T15:39:45;2.72;;;1.13;;
45254;SDS011;30989;52.078;21.014;2023-07-08T15:42:11;3.03;;;1.48;;